sensor_id;sensor_type;location;lat;lon;timestamp;P1;durP1;ratioP1;P2;durP2;ratioP2
54307;SDS011;40208;39.778;2.710;2023-04-25T00:00:44;4.78;;;1.77;;
54307;SDS011;40208;39.778;2.710;2023-04-25T00:03:29;4.88;;;1.63;;
54307;SDS011;40208;39.778;2.710;2023-04-25T00:06:14;3.35;;;1.40;;
54307;SDS011;40208;39.778;2.710;2023-04-25T00:08:59;4.28;;;1.73;;
54307;SDS011;40208;39.778;2.710;2023-04-25T00:11:44;4.13;;;1.80;;
54307;SDS011;40208;39.778;2.710;2023-04-25T00:14:29;5.50;;;1.67;;
54307;SDS011;40208;39.778;2.710;2023-04-25T00:17:14;2.05;;;1.30;;
54307;SDS011;40208;39.778;2.710;2023-04-25T00:19:59;1.92;;;1.10;;
54307;SDS011;40208;39.778;2.710;2023-04-25T00:22:44;4.25;;;2.13;;
54307;SDS011;40208;39.778;2.710;2023-04-25T00:25:29;7.07;;;2.10;;
54307;SDS011;40208;39.778;2.710;2023-04-25T00:28:14;5.25;;;1.73;;
54307;SDS011;40208;39.778;2.710;2023-04-25T00:31:00;3.80;;;1.27;;
54307;SDS011;40208;39.778;2.710;2023-04-25T00:33:45;3.25;;;1.35;;
54307;SDS011;40208;39.778;2.710;2023-04-25T00:36:29;3.28;;;1.55;;
54307;SDS011;40208;39.778;2.710;2023-04-25T00:39:14;3.45;;;1.73;;
54307;SDS011;40208;39.778;2.710;2023-04-25T00:42:00;4.97;;;1.60;;
54307;SDS011;40208;39.778;2.710;2023-04-25T00:44:46;4.70;;;1.73;;
54307;SDS011;40208;39.778;2.710;2023-04-25T00:47:32;3.92;;;2.08;;
54307;SDS011;40208;39.778;2.710;2023-04-25T00:50:18;4.20;;;1.67;;
54307;SDS011;40208;39.778;2.710;2023-04-25T00:53:03;4.30;;;2.00;;
54307;SDS011;40208;39.778;2.710;2023-04-25T00:55:48;4.65;;;2.15;;
54307;SDS011;40208;39.778;2.710;2023-04-25T00:58:35;6.07;;;1.80;;
54307;SDS011;40208;39.778;2.710;2023-04-25T01:01:21;4.00;;;2.00;;
54307;SDS011;40208;39.778;2.710;2023-04-25T01:04:13;4.95;;;1.70;;
54307;SDS011;40208;39.778;2.710;2023-04-25T01:07:05;2.70;;;1.88;;
54307;SDS011;40208;39.778;2.710;2023-04-25T01:09:53;7.60;;;1.92;;
54307;SDS011;40208;39.778;2.710;2023-04-25T01:12:38;3.80;;;1.50;;
54307;SDS011;40208;39.778;2.710;2023-04-25T01:15:24;4.25;;;1.58;;
54307;SDS011;40208;39.778;2.710;2023-04-25T01:18:08;6.38;;;1.60;;
54307;SDS011;40208;39.778;2.710;2023-04-25T01:20:54;7.18;;;2.08;;
54307;SDS011;40208;39.778;2.710;2023-04-25T01:23:40;4.47;;;1.92;;
54307;SDS011;40208;39.778;2.710;2023-04-25T01:26:26;5.00;;;1.58;;
54307;SDS011;40208;39.778;2.710;2023-04-25T01:29:12;4.53;;;1.90;;
54307;SDS011;40208;39.778;2.710;2023-04-25T01:31:57;3.90;;;1.58;;
54307;SDS011;40208;39.778;2.710;2023-04-25T01:34:43;4.30;;;1.60;;
54307;SDS011;40208;39.778;2.710;2023-04-25T01:37:27;8.52;;;2.20;;
54307;SDS011;40208;39.778;2.710;2023-04-25T01:40:14;3.00;;;1.67;;
54307;SDS011;40208;39.778;2.710;2023-04-25T01:42:59;2.65;;;1.42;;
54307;SDS011;40208;39.778;2.710;2023-04-25T01:45:45;3.58;;;1.58;;
54307;SDS011;40208;39.778;2.710;2023-04-25T01:48:30;2.97;;;1.70;;
54307;SDS011;40208;39.778;2.710;2023-04-25T01:51:15;2.88;;;1.73;;
54307;SDS011;40208;39.778;2.710;2023-04-25T01:54:01;3.10;;;1.55;;
54307;SDS011;40208;39.778;2.710;2023-04-25T01:56:52;6.28;;;1.70;;
54307;SDS011;40208;39.778;2.710;2023-04-25T01:59:38;3.92;;;1.55;;
54307;SDS011;40208;39.778;2.710;2023-04-25T02:02:25;3.50;;;1.45;;
54307;SDS011;40208;39.778;2.710;2023-04-25T02:05:10;6.50;;;1.63;;
54307;SDS011;40208;39.778;2.710;2023-04-25T02:07:56;7.97;;;2.00;;
54307;SDS011;40208;39.778;2.710;2023-04-25T02:10:42;6.47;;;2.00;;
54307;SDS011;40208;39.778;2.710;2023-04-25T02:13:27;4.10;;;1.70;;
54307;SDS011;40208;39.778;2.710;2023-04-25T02:16:12;3.70;;;1.58;;
54307;SDS011;40208;39.778;2.710;2023-04-25T02:18:57;7.97;;;2.05;;
54307;SDS011;40208;39.778;2.710;2023-04-25T02:21:42;8.73;;;2.03;;
54307;SDS011;40208;39.778;2.710;2023-04-25T02:24:27;5.22;;;1.80;;
54307;SDS011;40208;39.778;2.710;2023-04-25T02:27:12;3.22;;;1.90;;
54307;SDS011;40208;39.778;2.710;2023-04-25T02:29:57;4.22;;;1.98;;
54307;SDS011;40208;39.778;2.710;2023-04-25T02:32:42;9.43;;;2.10;;
54307;SDS011;40208;39.778;2.710;2023-04-25T02:35:27;5.78;;;2.00;;
54307;SDS011;40208;39.778;2.710;2023-04-25T02:38:12;4.13;;;1.70;;
54307;SDS011;40208;39.778;2.710;2023-04-25T02:40:57;4.13;;;1.92;;
54307;SDS011;40208;39.778;2.710;2023-04-25T02:43:42;2.67;;;1.63;;
54307;SDS011;40208;39.778;2.710;2023-04-25T02:46:33;6.38;;;2.30;;
54307;SDS011;40208;39.778;2.710;2023-04-25T02:49:18;4.55;;;1.80;;
54307;SDS011;40208;39.778;2.710;2023-04-25T02:52:02;5.82;;;2.45;;
54307;SDS011;40208;39.778;2.710;2023-04-25T02:54:49;3.53;;;1.73;;
54307;SDS011;40208;39.778;2.710;2023-04-25T02:57:33;7.57;;;2.10;;
54307;SDS011;40208;39.778;2.710;2023-04-25T03:00:19;4.15;;;2.10;;
54307;SDS011;40208;39.778;2.710;2023-04-25T03:03:04;3.95;;;1.73;;
54307;SDS011;40208;39.778;2.710;2023-04-25T03:05:49;4.35;;;2.05;;
54307;SDS011;40208;39.778;2.710;2023-04-25T03:08:35;4.63;;;1.70;;
54307;SDS011;40208;39.778;2.710;2023-04-25T03:11:23;7.15;;;2.22;;
54307;SDS011;40208;39.778;2.710;2023-04-25T03:14:10;5.43;;;2.13;;
54307;SDS011;40208;39.778;2.710;2023-04-25T03:16:55;4.80;;;1.95;;
54307;SDS011;40208;39.778;2.710;2023-04-25T03:19:40;6.60;;;1.98;;
54307;SDS011;40208;39.778;2.710;2023-04-25T03:22:25;5.30;;;1.95;;
54307;SDS011;40208;39.778;2.710;2023-04-25T03:25:10;6.18;;;2.08;;
54307;SDS011;40208;39.778;2.710;2023-04-25T03:27:55;4.93;;;2.15;;
54307;SDS011;40208;39.778;2.710;2023-04-25T03:30:40;5.28;;;2.10;;
54307;SDS011;40208;39.778;2.710;2023-04-25T03:33:25;4.35;;;2.70;;
54307;SDS011;40208;39.778;2.710;2023-04-25T03:36:16;5.65;;;2.10;;
54307;SDS011;40208;39.778;2.710;2023-04-25T03:39:01;6.60;;;2.60;;
54307;SDS011;40208;39.778;2.710;2023-04-25T03:41:46;4.20;;;1.90;;
54307;SDS011;40208;39.778;2.710;2023-04-25T03:44:31;9.32;;;3.05;;
54307;SDS011;40208;39.778;2.710;2023-04-25T03:47:16;4.70;;;2.28;;
54307;SDS011;40208;39.778;2.710;2023-04-25T03:50:07;3.25;;;1.63;;
54307;SDS011;40208;39.778;2.710;2023-04-25T03:52:53;6.88;;;2.28;;
54307;SDS011;40208;39.778;2.710;2023-04-25T03:55:38;6.13;;;2.30;;
54307;SDS011;40208;39.778;2.710;2023-04-25T03:58:23;6.15;;;2.28;;
54307;SDS011;40208;39.778;2.710;2023-04-25T04:01:08;4.82;;;2.25;;
54307;SDS011;40208;39.778;2.710;2023-04-25T04:03:53;2.60;;;2.00;;
54307;SDS011;40208;39.778;2.710;2023-04-25T04:06:38;6.82;;;2.10;;
54307;SDS011;40208;39.778;2.710;2023-04-25T04:09:23;4.72;;;2.28;;
54307;SDS011;40208;39.778;2.710;2023-04-25T04:12:08;4.57;;;1.92;;
54307;SDS011;40208;39.778;2.710;2023-04-25T04:14:53;3.15;;;1.83;;
54307;SDS011;40208;39.778;2.710;2023-04-25T04:17:38;5.85;;;2.33;;
54307;SDS011;40208;39.778;2.710;2023-04-25T04:20:22;6.43;;;2.40;;
54307;SDS011;40208;39.778;2.710;2023-04-25T04:23:07;3.72;;;1.95;;
54307;SDS011;40208;39.778;2.710;2023-04-25T04:25:52;3.55;;;2.00;;
54307;SDS011;40208;39.778;2.710;2023-04-25T04:28:38;7.75;;;2.22;;
54307;SDS011;40208;39.778;2.710;2023-04-25T04:31:23;4.20;;;1.70;;
54307;SDS011;40208;39.778;2.710;2023-04-25T04:34:08;3.75;;;1.92;;
54307;SDS011;40208;39.778;2.710;2023-04-25T04:36:53;6.35;;;1.92;;
54307;SDS011;40208;39.778;2.710;2023-04-25T04:39:39;5.30;;;2.00;;
54307;SDS011;40208;39.778;2.710;2023-04-25T04:42:24;5.63;;;2.10;;
54307;SDS011;40208;39.778;2.710;2023-04-25T04:45:09;5.50;;;1.67;;
54307;SDS011;40208;39.778;2.710;2023-04-25T04:47:54;7.78;;;1.95;;
54307;SDS011;40208;39.778;2.710;2023-04-25T04:50:45;4.43;;;2.13;;
54307;SDS011;40208;39.778;2.710;2023-04-25T04:53:30;9.35;;;2.33;;
54307;SDS011;40208;39.778;2.710;2023-04-25T04:56:15;7.20;;;2.35;;
54307;SDS011;40208;39.778;2.710;2023-04-25T04:59:00;4.80;;;1.98;;
54307;SDS011;40208;39.778;2.710;2023-04-25T05:01:47;8.60;;;2.00;;
54307;SDS011;40208;39.778;2.710;2023-04-25T05:04:32;4.05;;;2.00;;
54307;SDS011;40208;39.778;2.710;2023-04-25T05:07:18;3.92;;;2.30;;
54307;SDS011;40208;39.778;2.710;2023-04-25T05:10:03;5.15;;;2.42;;
54307;SDS011;40208;39.778;2.710;2023-04-25T05:12:49;3.85;;;2.38;;
54307;SDS011;40208;39.778;2.710;2023-04-25T05:15:34;6.43;;;2.70;;
54307;SDS011;40208;39.778;2.710;2023-04-25T05:18:19;7.10;;;3.00;;
54307;SDS011;40208;39.778;2.710;2023-04-25T05:21:04;9.80;;;2.85;;
54307;SDS011;40208;39.778;2.710;2023-04-25T05:23:49;13.50;;;2.60;;
54307;SDS011;40208;39.778;2.710;2023-04-25T05:26:34;7.30;;;2.67;;
54307;SDS011;40208;39.778;2.710;2023-04-25T05:29:19;10.70;;;2.47;;
54307;SDS011;40208;39.778;2.710;2023-04-25T05:32:05;6.32;;;2.40;;
54307;SDS011;40208;39.778;2.710;2023-04-25T05:34:50;5.07;;;2.10;;
54307;SDS011;40208;39.778;2.710;2023-04-25T05:37:35;13.35;;;3.40;;
54307;SDS011;40208;39.778;2.710;2023-04-25T05:40:20;7.20;;;2.42;;
54307;SDS011;40208;39.778;2.710;2023-04-25T05:43:05;7.90;;;2.40;;
54307;SDS011;40208;39.778;2.710;2023-04-25T05:45:51;6.88;;;2.38;;
54307;SDS011;40208;39.778;2.710;2023-04-25T05:48:36;12.13;;;2.65;;
54307;SDS011;40208;39.778;2.710;2023-04-25T05:51:21;6.75;;;2.83;;
54307;SDS011;40208;39.778;2.710;2023-04-25T05:54:06;18.27;;;3.58;;
54307;SDS011;40208;39.778;2.710;2023-04-25T05:56:51;11.30;;;3.55;;
54307;SDS011;40208;39.778;2.710;2023-04-25T05:59:37;11.93;;;4.07;;
54307;SDS011;40208;39.778;2.710;2023-04-25T06:02:24;16.90;;;4.05;;
54307;SDS011;40208;39.778;2.710;2023-04-25T06:05:08;12.45;;;3.70;;
54307;SDS011;40208;39.778;2.710;2023-04-25T06:07:55;10.60;;;4.47;;
54307;SDS011;40208;39.778;2.710;2023-04-25T06:10:40;13.13;;;5.88;;
54307;SDS011;40208;39.778;2.710;2023-04-25T06:13:25;13.65;;;5.05;;
54307;SDS011;40208;39.778;2.710;2023-04-25T06:16:10;13.98;;;4.47;;
54307;SDS011;40208;39.778;2.710;2023-04-25T06:18:55;21.73;;;7.00;;
54307;SDS011;40208;39.778;2.710;2023-04-25T06:21:41;17.90;;;5.40;;
54307;SDS011;40208;39.778;2.710;2023-04-25T06:24:28;14.23;;;4.95;;
54307;SDS011;40208;39.778;2.710;2023-04-25T06:27:14;19.30;;;5.40;;
54307;SDS011;40208;39.778;2.710;2023-04-25T06:29:59;21.40;;;6.65;;
54307;SDS011;40208;39.778;2.710;2023-04-25T06:32:44;17.02;;;5.40;;
54307;SDS011;40208;39.778;2.710;2023-04-25T06:35:29;21.20;;;5.75;;
54307;SDS011;40208;39.778;2.710;2023-04-25T06:38:20;11.38;;;5.68;;
54307;SDS011;40208;39.778;2.710;2023-04-25T06:41:05;16.00;;;5.43;;
54307;SDS011;40208;39.778;2.710;2023-04-25T06:43:53;19.73;;;5.78;;
54307;SDS011;40208;39.778;2.710;2023-04-25T06:46:39;20.63;;;6.20;;
54307;SDS011;40208;39.778;2.710;2023-04-25T06:49:27;23.05;;;5.78;;
54307;SDS011;40208;39.778;2.710;2023-04-25T06:52:15;13.25;;;6.25;;
54307;SDS011;40208;39.778;2.710;2023-04-25T06:55:02;10.45;;;4.88;;
54307;SDS011;40208;39.778;2.710;2023-04-25T06:57:48;21.45;;;5.53;;
54307;SDS011;40208;39.778;2.710;2023-04-25T07:00:33;14.02;;;6.43;;
54307;SDS011;40208;39.778;2.710;2023-04-25T07:03:18;28.73;;;12.52;;
54307;SDS011;40208;39.778;2.710;2023-04-25T07:06:03;13.25;;;9.30;;
54307;SDS011;40208;39.778;2.710;2023-04-25T07:08:54;23.65;;;13.32;;
54307;SDS011;40208;39.778;2.710;2023-04-25T07:11:42;25.70;;;13.13;;
54307;SDS011;40208;39.778;2.710;2023-04-25T07:14:27;27.10;;;13.05;;
54307;SDS011;40208;39.778;2.710;2023-04-25T07:17:12;34.80;;;15.00;;
54307;SDS011;40208;39.778;2.710;2023-04-25T07:19:57;30.92;;;17.17;;
54307;SDS011;40208;39.778;2.710;2023-04-25T07:22:42;26.75;;;15.43;;
54307;SDS011;40208;39.778;2.710;2023-04-25T07:25:27;23.83;;;12.02;;
54307;SDS011;40208;39.778;2.710;2023-04-25T07:28:12;22.70;;;10.45;;
54307;SDS011;40208;39.778;2.710;2023-04-25T07:30:57;13.02;;;7.35;;
54307;SDS011;40208;39.778;2.710;2023-04-25T07:33:42;11.70;;;6.10;;
54307;SDS011;40208;39.778;2.710;2023-04-25T07:36:33;15.30;;;5.40;;
54307;SDS011;40208;39.778;2.710;2023-04-25T07:39:22;12.63;;;5.95;;
54307;SDS011;40208;39.778;2.710;2023-04-25T07:42:07;13.77;;;5.85;;
54307;SDS011;40208;39.778;2.710;2023-04-25T07:44:52;14.15;;;5.55;;
54307;SDS011;40208;39.778;2.710;2023-04-25T07:47:37;11.38;;;4.80;;
54307;SDS011;40208;39.778;2.710;2023-04-25T07:50:22;13.70;;;5.40;;
54307;SDS011;40208;39.778;2.710;2023-04-25T07:53:07;13.52;;;6.80;;
54307;SDS011;40208;39.778;2.710;2023-04-25T07:55:54;14.02;;;8.23;;
54307;SDS011;40208;39.778;2.710;2023-04-25T07:58:39;16.73;;;8.48;;
54307;SDS011;40208;39.778;2.710;2023-04-25T08:01:24;17.92;;;7.43;;
54307;SDS011;40208;39.778;2.710;2023-04-25T08:04:09;12.70;;;6.70;;
54307;SDS011;40208;39.778;2.710;2023-04-25T08:06:54;15.60;;;7.82;;
54307;SDS011;40208;39.778;2.710;2023-04-25T08:09:39;18.25;;;7.20;;
54307;SDS011;40208;39.778;2.710;2023-04-25T08:12:24;16.25;;;7.15;;
54307;SDS011;40208;39.778;2.710;2023-04-25T08:15:10;20.02;;;8.20;;
54307;SDS011;40208;39.778;2.710;2023-04-25T08:17:54;21.48;;;7.55;;
54307;SDS011;40208;39.778;2.710;2023-04-25T08:20:39;19.65;;;8.20;;
54307;SDS011;40208;39.778;2.710;2023-04-25T08:23:25;13.20;;;6.38;;
54307;SDS011;40208;39.778;2.710;2023-04-25T08:26:09;20.10;;;9.30;;
54307;SDS011;40208;39.778;2.710;2023-04-25T08:28:54;28.02;;;11.13;;
54307;SDS011;40208;39.778;2.710;2023-04-25T08:31:39;20.83;;;9.10;;
54307;SDS011;40208;39.778;2.710;2023-04-25T08:34:27;33.40;;;11.75;;
54307;SDS011;40208;39.778;2.710;2023-04-25T08:37:12;46.92;;;15.38;;
54307;SDS011;40208;39.778;2.710;2023-04-25T08:39:57;52.55;;;18.27;;
54307;SDS011;40208;39.778;2.710;2023-04-25T08:42:45;34.03;;;11.35;;
54307;SDS011;40208;39.778;2.710;2023-04-25T08:45:32;38.60;;;13.30;;
54307;SDS011;40208;39.778;2.710;2023-04-25T08:48:18;60.28;;;20.00;;
54307;SDS011;40208;39.778;2.710;2023-04-25T08:51:08;54.08;;;18.45;;
54307;SDS011;40208;39.778;2.710;2023-04-25T08:54:17;54.10;;;16.92;;
54307;SDS011;40208;39.778;2.710;2023-04-25T08:57:05;53.95;;;17.70;;
54307;SDS011;40208;39.778;2.710;2023-04-25T08:59:51;55.50;;;17.45;;
54307;SDS011;40208;39.778;2.710;2023-04-25T09:02:40;59.05;;;19.33;;
54307;SDS011;40208;39.778;2.710;2023-04-25T09:05:28;55.37;;;17.67;;
54307;SDS011;40208;39.778;2.710;2023-04-25T09:08:13;59.67;;;17.67;;
54307;SDS011;40208;39.778;2.710;2023-04-25T09:10:58;45.17;;;15.98;;
54307;SDS011;40208;39.778;2.710;2023-04-25T09:13:43;63.60;;;20.58;;
54307;SDS011;40208;39.778;2.710;2023-04-25T09:16:29;43.75;;;14.05;;
54307;SDS011;40208;39.778;2.710;2023-04-25T09:19:23;35.42;;;12.55;;
54307;SDS011;40208;39.778;2.710;2023-04-25T09:22:17;42.53;;;14.70;;
54307;SDS011;40208;39.778;2.710;2023-04-25T09:25:08;47.10;;;16.13;;
54307;SDS011;40208;39.778;2.710;2023-04-25T09:27:58;54.28;;;18.30;;
54307;SDS011;40208;39.778;2.710;2023-04-25T09:30:49;59.60;;;17.90;;
54307;SDS011;40208;39.778;2.710;2023-04-25T09:33:34;58.00;;;19.35;;
54307;SDS011;40208;39.778;2.710;2023-04-25T09:36:20;53.53;;;18.17;;
54307;SDS011;40208;39.778;2.710;2023-04-25T09:39:12;56.03;;;18.98;;
54307;SDS011;40208;39.778;2.710;2023-04-25T09:42:02;55.95;;;20.02;;
54307;SDS011;40208;39.778;2.710;2023-04-25T09:44:47;56.72;;;20.40;;
54307;SDS011;40208;39.778;2.710;2023-04-25T09:47:32;59.10;;;18.25;;
54307;SDS011;40208;39.778;2.710;2023-04-25T09:50:22;53.30;;;17.95;;
54307;SDS011;40208;39.778;2.710;2023-04-25T09:53:09;47.17;;;17.30;;
54307;SDS011;40208;39.778;2.710;2023-04-25T09:55:54;50.08;;;17.52;;
54307;SDS011;40208;39.778;2.710;2023-04-25T09:58:45;60.95;;;18.88;;
54307;SDS011;40208;39.778;2.710;2023-04-25T10:01:31;35.90;;;14.02;;
54307;SDS011;40208;39.778;2.710;2023-04-25T10:04:20;33.38;;;10.32;;
54307;SDS011;40208;39.778;2.710;2023-04-25T10:07:10;39.45;;;12.98;;
54307;SDS011;40208;39.778;2.710;2023-04-25T10:10:01;54.03;;;20.10;;
54307;SDS011;40208;39.778;2.710;2023-04-25T10:12:47;37.83;;;15.57;;
54307;SDS011;40208;39.778;2.710;2023-04-25T10:15:34;47.72;;;17.20;;
54307;SDS011;40208;39.778;2.710;2023-04-25T10:18:21;32.38;;;12.48;;
54307;SDS011;40208;39.778;2.710;2023-04-25T10:21:12;20.65;;;7.15;;
54307;SDS011;40208;39.778;2.710;2023-04-25T10:24:01;27.50;;;10.15;;
54307;SDS011;40208;39.778;2.710;2023-04-25T10:26:50;56.15;;;17.55;;
54307;SDS011;40208;39.778;2.710;2023-04-25T10:29:35;40.17;;;15.48;;
54307;SDS011;40208;39.778;2.710;2023-04-25T10:32:20;26.17;;;8.90;;
54307;SDS011;40208;39.778;2.710;2023-04-25T10:38:05;37.35;;;11.68;;
54307;SDS011;40208;39.778;2.710;2023-04-25T10:41:02;25.70;;;10.68;;
54307;SDS011;40208;39.778;2.710;2023-04-25T10:43:58;21.00;;;8.48;;
54307;SDS011;40208;39.778;2.710;2023-04-25T10:46:45;49.90;;;17.42;;
54307;SDS011;40208;39.778;2.710;2023-04-25T10:49:34;46.55;;;16.05;;
54307;SDS011;40208;39.778;2.710;2023-04-25T10:55:12;63.90;;;22.73;;
54307;SDS011;40208;39.778;2.710;2023-04-25T10:57:57;48.13;;;16.38;;
54307;SDS011;40208;39.778;2.710;2023-04-25T11:00:42;48.22;;;16.33;;
54307;SDS011;40208;39.778;2.710;2023-04-25T11:03:27;34.60;;;12.77;;
54307;SDS011;40208;39.778;2.710;2023-04-25T11:06:35;32.40;;;10.82;;
54307;SDS011;40208;39.778;2.710;2023-04-25T11:09:36;28.17;;;11.70;;
54307;SDS011;40208;39.778;2.710;2023-04-25T11:12:24;51.08;;;16.77;;
54307;SDS011;40208;39.778;2.710;2023-04-25T11:15:09;44.63;;;17.90;;
54307;SDS011;40208;39.778;2.710;2023-04-25T11:18:00;13.38;;;5.03;;
54307;SDS011;40208;39.778;2.710;2023-04-25T11:20:44;35.92;;;11.73;;
54307;SDS011;40208;39.778;2.710;2023-04-25T11:23:32;14.65;;;4.40;;
54307;SDS011;40208;39.778;2.710;2023-04-25T11:26:18;33.13;;;11.95;;
54307;SDS011;40208;39.778;2.710;2023-04-25T11:29:04;32.45;;;10.55;;
54307;SDS011;40208;39.778;2.710;2023-04-25T11:31:50;28.88;;;11.40;;
54307;SDS011;40208;39.778;2.710;2023-04-25T11:34:35;22.60;;;8.93;;
54307;SDS011;40208;39.778;2.710;2023-04-25T11:37:23;26.27;;;9.93;;
54307;SDS011;40208;39.778;2.710;2023-04-25T11:40:08;25.73;;;8.90;;
54307;SDS011;40208;39.778;2.710;2023-04-25T11:42:53;19.30;;;7.75;;
54307;SDS011;40208;39.778;2.710;2023-04-25T11:45:38;18.35;;;7.25;;
54307;SDS011;40208;39.778;2.710;2023-04-25T11:48:25;17.23;;;6.75;;
54307;SDS011;40208;39.778;2.710;2023-04-25T11:51:09;14.48;;;5.57;;
54307;SDS011;40208;39.778;2.710;2023-04-25T11:53:54;24.35;;;7.03;;
54307;SDS011;40208;39.778;2.710;2023-04-25T11:56:45;19.05;;;6.40;;
54307;SDS011;40208;39.778;2.710;2023-04-25T11:59:31;17.02;;;5.07;;
54307;SDS011;40208;39.778;2.710;2023-04-25T12:02:25;15.13;;;5.15;;
54307;SDS011;40208;39.778;2.710;2023-04-25T12:05:11;12.60;;;4.20;;
54307;SDS011;40208;39.778;2.710;2023-04-25T12:07:57;12.93;;;4.57;;
54307;SDS011;40208;39.778;2.710;2023-04-25T12:10:45;12.82;;;4.13;;
54307;SDS011;40208;39.778;2.710;2023-04-25T12:13:31;12.23;;;3.83;;
54307;SDS011;40208;39.778;2.710;2023-04-25T12:16:16;12.73;;;3.97;;
54307;SDS011;40208;39.778;2.710;2023-04-25T12:19:00;14.38;;;3.97;;
54307;SDS011;40208;39.778;2.710;2023-04-25T12:21:46;10.45;;;3.85;;
54307;SDS011;40208;39.778;2.710;2023-04-25T12:24:33;12.45;;;3.40;;
54307;SDS011;40208;39.778;2.710;2023-04-25T12:27:18;8.10;;;3.45;;
54307;SDS011;40208;39.778;2.710;2023-04-25T12:30:03;8.68;;;2.90;;
54307;SDS011;40208;39.778;2.710;2023-04-25T12:32:50;10.10;;;3.33;;
54307;SDS011;40208;39.778;2.710;2023-04-25T12:35:36;7.30;;;2.70;;
54307;SDS011;40208;39.778;2.710;2023-04-25T12:38:22;8.32;;;2.40;;
54307;SDS011;40208;39.778;2.710;2023-04-25T12:41:17;8.95;;;2.50;;
54307;SDS011;40208;39.778;2.710;2023-04-25T12:44:02;5.07;;;1.90;;
54307;SDS011;40208;39.778;2.710;2023-04-25T12:46:47;2.22;;;1.10;;
54307;SDS011;40208;39.778;2.710;2023-04-25T12:49:33;3.58;;;1.30;;
54307;SDS011;40208;39.778;2.710;2023-04-25T12:52:18;5.72;;;1.45;;
54307;SDS011;40208;39.778;2.710;2023-04-25T12:55:03;4.72;;;2.10;;
54307;SDS011;40208;39.778;2.710;2023-04-25T12:57:48;2.13;;;1.20;;
54307;SDS011;40208;39.778;2.710;2023-04-25T13:00:37;3.58;;;1.20;;
54307;SDS011;40208;39.778;2.710;2023-04-25T13:03:22;6.07;;;1.58;;
54307;SDS011;40208;39.778;2.710;2023-04-25T13:06:07;3.90;;;1.60;;
54307;SDS011;40208;39.778;2.710;2023-04-25T13:08:59;2.40;;;1.30;;
54307;SDS011;40208;39.778;2.710;2023-04-25T13:11:44;3.47;;;1.30;;
54307;SDS011;40208;39.778;2.710;2023-04-25T13:14:30;4.18;;;1.35;;
54307;SDS011;40208;39.778;2.710;2023-04-25T13:17:15;5.93;;;1.33;;
54307;SDS011;40208;39.778;2.710;2023-04-25T13:20:00;2.08;;;1.10;;
54307;SDS011;40208;39.778;2.710;2023-04-25T13:22:51;4.47;;;1.30;;
54307;SDS011;40208;39.778;2.710;2023-04-25T13:25:35;3.17;;;1.30;;
54307;SDS011;40208;39.778;2.710;2023-04-25T13:28:27;2.88;;;1.08;;
54307;SDS011;40208;39.778;2.710;2023-04-25T13:31:13;4.65;;;1.42;;
54307;SDS011;40208;39.778;2.710;2023-04-25T13:33:58;5.97;;;1.75;;
54307;SDS011;40208;39.778;2.710;2023-04-25T13:36:43;3.45;;;1.08;;
54307;SDS011;40208;39.778;2.710;2023-04-25T13:39:28;2.13;;;1.10;;
54307;SDS011;40208;39.778;2.710;2023-04-25T13:42:13;5.72;;;1.10;;
54307;SDS011;40208;39.778;2.710;2023-04-25T13:44:58;3.95;;;1.10;;
54307;SDS011;40208;39.778;2.710;2023-04-25T13:47:42;3.72;;;1.67;;
54307;SDS011;40208;39.778;2.710;2023-04-25T13:50:27;4.05;;;1.23;;
54307;SDS011;40208;39.778;2.710;2023-04-25T13:53:12;4.43;;;2.10;;
54307;SDS011;40208;39.778;2.710;2023-04-25T13:55:58;3.80;;;1.25;;
54307;SDS011;40208;39.778;2.710;2023-04-25T13:58:42;3.85;;;1.60;;
54307;SDS011;40208;39.778;2.710;2023-04-25T14:01:34;6.93;;;1.45;;
54307;SDS011;40208;39.778;2.710;2023-04-25T14:04:20;3.25;;;1.23;;
54307;SDS011;40208;39.778;2.710;2023-04-25T14:07:04;7.22;;;1.95;;
54307;SDS011;40208;39.778;2.710;2023-04-25T14:09:50;4.65;;;1.60;;
54307;SDS011;40208;39.778;2.710;2023-04-25T14:12:34;5.93;;;1.77;;
54307;SDS011;40208;39.778;2.710;2023-04-25T14:15:20;4.70;;;2.25;;
54307;SDS011;40208;39.778;2.710;2023-04-25T14:18:06;5.20;;;1.88;;
54307;SDS011;40208;39.778;2.710;2023-04-25T14:20:53;3.40;;;1.50;;
54307;SDS011;40208;39.778;2.710;2023-04-25T14:23:38;4.70;;;1.50;;
54307;SDS011;40208;39.778;2.710;2023-04-25T14:26:23;6.97;;;1.58;;
54307;SDS011;40208;39.778;2.710;2023-04-25T14:29:09;5.30;;;1.20;;
54307;SDS011;40208;39.778;2.710;2023-04-25T14:31:56;9.30;;;1.63;;
54307;SDS011;40208;39.778;2.710;2023-04-25T14:34:42;5.13;;;1.38;;
54307;SDS011;40208;39.778;2.710;2023-04-25T14:37:27;2.85;;;1.38;;
54307;SDS011;40208;39.778;2.710;2023-04-25T14:40:12;4.72;;;1.33;;
54307;SDS011;40208;39.778;2.710;2023-04-25T14:43:05;3.03;;;1.08;;
54307;SDS011;40208;39.778;2.710;2023-04-25T14:45:52;5.47;;;1.73;;
54307;SDS011;40208;39.778;2.710;2023-04-25T14:48:37;3.58;;;1.25;;
54307;SDS011;40208;39.778;2.710;2023-04-25T14:51:26;3.33;;;1.27;;
54307;SDS011;40208;39.778;2.710;2023-04-25T14:54:11;3.88;;;1.23;;
54307;SDS011;40208;39.778;2.710;2023-04-25T14:56:56;4.35;;;1.35;;
54307;SDS011;40208;39.778;2.710;2023-04-25T14:59:42;5.70;;;1.30;;
54307;SDS011;40208;39.778;2.710;2023-04-25T15:02:27;8.55;;;0.90;;
54307;SDS011;40208;39.778;2.710;2023-04-25T15:05:12;2.53;;;1.15;;
54307;SDS011;40208;39.778;2.710;2023-04-25T15:07:59;7.30;;;1.60;;
54307;SDS011;40208;39.778;2.710;2023-04-25T15:10:45;3.45;;;1.00;;
54307;SDS011;40208;39.778;2.710;2023-04-25T15:13:32;3.17;;;1.00;;
54307;SDS011;40208;39.778;2.710;2023-04-25T15:16:17;3.25;;;1.00;;
54307;SDS011;40208;39.778;2.710;2023-04-25T15:19:01;4.68;;;1.20;;
54307;SDS011;40208;39.778;2.710;2023-04-25T15:21:49;3.22;;;1.20;;
54307;SDS011;40208;39.778;2.710;2023-04-25T15:24:34;2.83;;;1.23;;
54307;SDS011;40208;39.778;2.710;2023-04-25T15:27:20;3.53;;;1.35;;
54307;SDS011;40208;39.778;2.710;2023-04-25T15:30:06;3.67;;;1.25;;
54307;SDS011;40208;39.778;2.710;2023-04-25T15:32:52;3.30;;;1.15;;
54307;SDS011;40208;39.778;2.710;2023-04-25T15:35:37;6.63;;;1.35;;
54307;SDS011;40208;39.778;2.710;2023-04-25T15:38:22;6.40;;;1.85;;
54307;SDS011;40208;39.778;2.710;2023-04-25T15:41:06;3.38;;;1.42;;
54307;SDS011;40208;39.778;2.710;2023-04-25T15:43:51;8.27;;;1.73;;
54307;SDS011;40208;39.778;2.710;2023-04-25T15:46:37;3.95;;;1.63;;
54307;SDS011;40208;39.778;2.710;2023-04-25T15:49:22;3.92;;;1.73;;
54307;SDS011;40208;39.778;2.710;2023-04-25T15:52:07;4.63;;;1.58;;
54307;SDS011;40208;39.778;2.710;2023-04-25T15:54:52;4.18;;;1.55;;
54307;SDS011;40208;39.778;2.710;2023-04-25T15:57:38;6.30;;;1.60;;
54307;SDS011;40208;39.778;2.710;2023-04-25T16:00:25;7.30;;;2.15;;
54307;SDS011;40208;39.778;2.710;2023-04-25T16:03:10;9.70;;;2.20;;
54307;SDS011;40208;39.778;2.710;2023-04-25T16:05:54;8.40;;;2.03;;
54307;SDS011;40208;39.778;2.710;2023-04-25T16:08:39;6.78;;;1.80;;
54307;SDS011;40208;39.778;2.710;2023-04-25T16:11:24;7.55;;;1.98;;
54307;SDS011;40208;39.778;2.710;2023-04-25T16:14:09;8.15;;;1.77;;
54307;SDS011;40208;39.778;2.710;2023-04-25T16:16:54;8.85;;;2.28;;
54307;SDS011;40208;39.778;2.710;2023-04-25T16:19:40;10.27;;;2.58;;
54307;SDS011;40208;39.778;2.710;2023-04-25T16:22:24;24.55;;;4.82;;
54307;SDS011;40208;39.778;2.710;2023-04-25T16:25:10;21.02;;;4.15;;
54307;SDS011;40208;39.778;2.710;2023-04-25T16:27:57;18.00;;;3.17;;
54307;SDS011;40208;39.778;2.710;2023-04-25T16:30:42;13.48;;;3.40;;
54307;SDS011;40208;39.778;2.710;2023-04-25T16:33:33;9.55;;;2.90;;
54307;SDS011;40208;39.778;2.710;2023-04-25T16:36:18;9.32;;;2.45;;
54307;SDS011;40208;39.778;2.710;2023-04-25T16:39:03;9.82;;;2.45;;